sensor_id;sensor_type;location;lat;lon;timestamp;temperature;humidity
28189;DHT22;15471;51.166;4.470;2023-05-29T00:00:48;13.70;99.90
28189;DHT22;15471;51.166;4.470;2023-05-29T00:03:14;13.70;99.90
28189;DHT22;15471;51.166;4.470;2023-05-29T00:05:40;13.60;99.90
28189;DHT22;15471;51.166;4.470;2023-05-29T00:08:06;13.50;99.90
28189;DHT22;15471;51.166;4.470;2023-05-29T00:10:32;13.40;99.90
28189;DHT22;15471;51.166;4.470;2023-05-29T00:12:58;13.40;99.90
28189;DHT22;15471;51.166;4.470;2023-05-29T00:15:27;13.50;99.90
28189;DHT22;15471;51.166;4.470;2023-05-29T00:17:53;13.50;99.90
28189;DHT22;15471;51.166;4.470;2023-05-29T00:20:20;13.50;99.90
28189;DHT22;15471;51.166;4.470;2023-05-29T00:22:46;13.60;99.90
28189;DHT22;15471;51.166;4.470;2023-05-29T00:25:12;13.50;99.90
28189;DHT22;15471;51.166;4.470;2023-05-29T00:27:38;13.40;99.90
28189;DHT22;15471;51.166;4.470;2023-05-29T00:30:04;13.30;99.90
28189;DHT22;15471;51.166;4.470;2023-05-29T00:32:31;13.40;99.90
28189;DHT22;15471;51.166;4.470;2023-05-29T00:34:58;13.40;99.90
28189;DHT22;15471;51.166;4.470;2023-05-29T00:37:32;13.40;99.90
28189;DHT22;15471;51.166;4.470;2023-05-29T00:39:58;13.30;99.90
28189;DHT22;15471;51.166;4.470;2023-05-29T00:42:24;13.30;99.90
28189;DHT22;15471;51.166;4.470;2023-05-29T00:44:50;13.20;99.90
28189;DHT22;15471;51.166;4.470;2023-05-29T00:47:17;13.20;99.90
28189;DHT22;15471;51.166;4.470;2023-05-29T00:49:43;13.00;99.90
28189;DHT22;15471;51.166;4.470;2023-05-29T00:52:10;12.90;99.90
28189;DHT22;15471;51.166;4.470;2023-05-29T00:54:38;12.80;99.90
28189;DHT22;15471;51.166;4.470;2023-05-29T00:57:05;12.70;99.90
28189;DHT22;15471;51.166;4.470;2023-05-29T00:59:32;12.80;99.90
28189;DHT22;15471;51.166;4.470;2023-05-29T01:02:01;13.00;99.90
28189;DHT22;15471;51.166;4.470;2023-05-29T01:04:28;12.90;99.90
28189;DHT22;15471;51.166;4.470;2023-05-29T01:06:54;12.70;99.90
28189;DHT22;15471;51.166;4.470;2023-05-29T01:09:21;12.60;99.90
28189;DHT22;15471;51.166;4.470;2023-05-29T01:14:56;12.40;99.90
28189;DHT22;15471;51.166;4.470;2023-05-29T01:17:57;12.50;99.90
28189;DHT22;15471;51.166;4.470;2023-05-29T01:20:42;12.40;99.90
28189;DHT22;15471;51.166;4.470;2023-05-29T01:28:33;12.40;99.90
28189;DHT22;15471;51.166;4.470;2023-05-29T01:31:04;12.50;99.90
28189;DHT22;15471;51.166;4.470;2023-05-29T01:33:30;12.30;99.90
28189;DHT22;15471;51.166;4.470;2023-05-29T01:35:56;12.10;99.90
28189;DHT22;15471;51.166;4.470;2023-05-29T01:38:22;12.10;99.90
28189;DHT22;15471;51.166;4.470;2023-05-29T01:40:50;12.10;99.90
28189;DHT22;15471;51.166;4.470;2023-05-29T01:43:17;12.20;99.90
28189;DHT22;15471;51.166;4.470;2023-05-29T01:45:43;12.20;99.90
28189;DHT22;15471;51.166;4.470;2023-05-29T01:48:10;12.20;99.90
28189;DHT22;15471;51.166;4.470;2023-05-29T01:50:36;12.10;99.90
28189;DHT22;15471;51.166;4.470;2023-05-29T01:53:03;12.00;99.90
28189;DHT22;15471;51.166;4.470;2023-05-29T01:55:29;12.00;99.90
28189;DHT22;15471;51.166;4.470;2023-05-29T01:57:56;12.00;99.90
28189;DHT22;15471;51.166;4.470;2023-05-29T02:00:22;12.00;99.90
28189;DHT22;15471;51.166;4.470;2023-05-29T02:02:49;12.00;99.90
28189;DHT22;15471;51.166;4.470;2023-05-29T02:05:15;11.80;99.90
28189;DHT22;15471;51.166;4.470;2023-05-29T02:07:43;11.80;99.90
28189;DHT22;15471;51.166;4.470;2023-05-29T02:10:10;11.80;99.90
28189;DHT22;15471;51.166;4.470;2023-05-29T02:12:36;11.70;99.90
28189;DHT22;15471;51.166;4.470;2023-05-29T02:15:02;11.70;99.90
28189;DHT22;15471;51.166;4.470;2023-05-29T02:17:29;11.60;99.90
28189;DHT22;15471;51.166;4.470;2023-05-29T02:19:56;11.60;99.90
28189;DHT22;15471;51.166;4.470;2023-05-29T02:22:22;11.60;99.90
28189;DHT22;15471;51.166;4.470;2023-05-29T02:24:48;11.70;99.90
28189;DHT22;15471;51.166;4.470;2023-05-29T02:27:14;11.60;99.90
28189;DHT22;15471;51.166;4.470;2023-05-29T02:29:41;11.60;99.90
28189;DHT22;15471;51.166;4.470;2023-05-29T02:32:07;11.50;99.90
28189;DHT22;15471;51.166;4.470;2023-05-29T02:34:33;11.60;99.90
28189;DHT22;15471;51.166;4.470;2023-05-29T02:36:59;11.50;99.90
28189;DHT22;15471;51.166;4.470;2023-05-29T02:39:25;11.60;99.90
28189;DHT22;15471;51.166;4.470;2023-05-29T02:41:51;11.60;99.90
28189;DHT22;15471;51.166;4.470;2023-05-29T02:44:19;11.50;99.90
28189;DHT22;15471;51.166;4.470;2023-05-29T02:46:45;11.50;99.90
28189;DHT22;15471;51.166;4.470;2023-05-29T02:49:11;11.40;99.90
28189;DHT22;15471;51.166;4.470;2023-05-29T02:51:37;11.40;99.90
28189;DHT22;15471;51.166;4.470;2023-05-29T02:54:03;11.50;99.90
28189;DHT22;15471;51.166;4.470;2023-05-29T02:56:30;11.50;99.90
28189;DHT22;15471;51.166;4.470;2023-05-29T02:58:56;11.40;99.90
28189;DHT22;15471;51.166;4.470;2023-05-29T03:01:22;11.40;99.90
28189;DHT22;15471;51.166;4.470;2023-05-29T03:03:48;11.30;99.90
28189;DHT22;15471;51.166;4.470;2023-05-29T03:06:14;11.20;99.90
28189;DHT22;15471;51.166;4.470;2023-05-29T03:08:42;11.10;99.90
28189;DHT22;15471;51.166;4.470;2023-05-29T03:11:14;11.00;99.90
28189;DHT22;15471;51.166;4.470;2023-05-29T03:13:41;10.90;99.90
28189;DHT22;15471;51.166;4.470;2023-05-29T03:16:09;10.90;99.90
28189;DHT22;15471;51.166;4.470;2023-05-29T03:18:38;11.00;99.90
28189;DHT22;15471;51.166;4.470;2023-05-29T03:21:04;11.00;99.90
28189;DHT22;15471;51.166;4.470;2023-05-29T03:23:33;11.00;99.90
28189;DHT22;15471;51.166;4.470;2023-05-29T03:25:59;11.00;99.90
28189;DHT22;15471;51.166;4.470;2023-05-29T03:28:27;11.00;99.90
28189;DHT22;15471;51.166;4.470;2023-05-29T03:30:53;11.00;99.90
28189;DHT22;15471;51.166;4.470;2023-05-29T03:33:22;10.90;99.90
28189;DHT22;15471;51.166;4.470;2023-05-29T03:36:11;10.90;99.90
28189;DHT22;15471;51.166;4.470;2023-05-29T03:38:37;10.90;99.90
28189;DHT22;15471;51.166;4.470;2023-05-29T03:41:04;10.90;99.90
28189;DHT22;15471;51.166;4.470;2023-05-29T03:43:30;11.00;99.90
28189;DHT22;15471;51.166;4.470;2023-05-29T03:45:56;11.10;99.90
28189;DHT22;15471;51.166;4.470;2023-05-29T03:48:28;11.10;99.90
28189;DHT22;15471;51.166;4.470;2023-05-29T03:50:54;11.00;99.90
28189;DHT22;15471;51.166;4.470;2023-05-29T03:53:26;10.90;99.90
28189;DHT22;15471;51.166;4.470;2023-05-29T03:55:53;10.90;99.90
28189;DHT22;15471;51.166;4.470;2023-05-29T03:58:19;10.80;99.90
28189;DHT22;15471;51.166;4.470;2023-05-29T04:00:46;10.90;99.90
28189;DHT22;15471;51.166;4.470;2023-05-29T04:03:14;10.80;99.90
28189;DHT22;15471;51.166;4.470;2023-05-29T04:05:40;10.90;99.90
28189;DHT22;15471;51.166;4.470;2023-05-29T04:08:08;10.80;99.90
28189;DHT22;15471;51.166;4.470;2023-05-29T04:10:34;10.70;99.90
28189;DHT22;15471;51.166;4.470;2023-05-29T04:13:01;10.80;99.90
28189;DHT22;15471;51.166;4.470;2023-05-29T04:15:27;10.80;99.90
28189;DHT22;15471;51.166;4.470;2023-05-29T04:17:54;10.80;99.90
28189;DHT22;15471;51.166;4.470;2023-05-29T04:20:21;10.80;99.90
28189;DHT22;15471;51.166;4.470;2023-05-29T04:22:47;10.70;99.90
28189;DHT22;15471;51.166;4.470;2023-05-29T04:25:13;10.70;99.90
28189;DHT22;15471;51.166;4.470;2023-05-29T04:27:39;10.70;99.90
28189;DHT22;15471;51.166;4.470;2023-05-29T04:30:09;10.80;99.90
28189;DHT22;15471;51.166;4.470;2023-05-29T04:32:43;10.80;99.90
28189;DHT22;15471;51.166;4.470;2023-05-29T04:35:09;10.90;99.90
28189;DHT22;15471;51.166;4.470;2023-05-29T04:37:41;11.00;99.90
28189;DHT22;15471;51.166;4.470;2023-05-29T04:40:10;11.00;99.90
28189;DHT22;15471;51.166;4.470;2023-05-29T04:42:37;10.90;99.90
28189;DHT22;15471;51.166;4.470;2023-05-29T04:45:05;10.70;99.90
28189;DHT22;15471;51.166;4.470;2023-05-29T04:47:35;10.80;99.90
28189;DHT22;15471;51.166;4.470;2023-05-29T04:50:03;10.80;99.90
28189;DHT22;15471;51.166;4.470;2023-05-29T04:52:29;10.90;99.90
28189;DHT22;15471;51.166;4.470;2023-05-29T04:54:56;11.00;99.90
28189;DHT22;15471;51.166;4.470;2023-05-29T04:57:22;11.00;99.90
28189;DHT22;15471;51.166;4.470;2023-05-29T04:59:49;11.10;99.90
28189;DHT22;15471;51.166;4.470;2023-05-29T05:02:16;11.00;99.90
28189;DHT22;15471;51.166;4.470;2023-05-29T05:04:42;11.10;99.90
28189;DHT22;15471;51.166;4.470;2023-05-29T05:07:13;11.10;99.90
28189;DHT22;15471;51.166;4.470;2023-05-29T05:09:39;11.10;99.90
28189;DHT22;15471;51.166;4.470;2023-05-29T05:12:07;11.20;99.90
28189;DHT22;15471;51.166;4.470;2023-05-29T05:14:34;11.30;99.90
28189;DHT22;15471;51.166;4.470;2023-05-29T05:17:00;11.20;99.90
28189;DHT22;15471;51.166;4.470;2023-05-29T05:19:26;11.30;99.90
28189;DHT22;15471;51.166;4.470;2023-05-29T05:21:53;11.30;99.90
28189;DHT22;15471;51.166;4.470;2023-05-29T05:24:21;11.40;99.90
28189;DHT22;15471;51.166;4.470;2023-05-29T05:26:47;11.50;99.90
28189;DHT22;15471;51.166;4.470;2023-05-29T05:29:14;11.60;99.90
28189;DHT22;15471;51.166;4.470;2023-05-29T05:31:40;11.60;99.90
28189;DHT22;15471;51.166;4.470;2023-05-29T05:34:06;11.60;99.90
28189;DHT22;15471;51.166;4.470;2023-05-29T05:36:32;11.70;99.90
28189;DHT22;15471;51.166;4.470;2023-05-29T05:39:06;11.60;99.90
28189;DHT22;15471;51.166;4.470;2023-05-29T05:41:32;11.60;99.90
28189;DHT22;15471;51.166;4.470;2023-05-29T05:43:59;11.60;99.90
28189;DHT22;15471;51.166;4.470;2023-05-29T05:46:37;11.90;99.90
28189;DHT22;15471;51.166;4.470;2023-05-29T05:49:04;11.80;99.90
28189;DHT22;15471;51.166;4.470;2023-05-29T05:51:32;12.00;99.90
28189;DHT22;15471;51.166;4.470;2023-05-29T05:53:58;12.10;99.90
28189;DHT22;15471;51.166;4.470;2023-05-29T05:56:28;12.20;99.90
28189;DHT22;15471;51.166;4.470;2023-05-29T05:58:54;12.20;99.90
28189;DHT22;15471;51.166;4.470;2023-05-29T06:01:20;12.40;99.90
28189;DHT22;15471;51.166;4.470;2023-05-29T06:03:47;12.40;99.90
28189;DHT22;15471;51.166;4.470;2023-05-29T06:06:14;12.30;99.90
28189;DHT22;15471;51.166;4.470;2023-05-29T06:08:42;12.50;99.90
28189;DHT22;15471;51.166;4.470;2023-05-29T06:11:09;12.50;99.90
28189;DHT22;15471;51.166;4.470;2023-05-29T06:13:37;12.30;99.90
28189;DHT22;15471;51.166;4.470;2023-05-29T06:16:08;12.20;99.90
28189;DHT22;15471;51.166;4.470;2023-05-29T06:18:35;12.20;99.90
28189;DHT22;15471;51.166;4.470;2023-05-29T06:21:01;12.20;99.90
28189;DHT22;15471;51.166;4.470;2023-05-29T06:23:29;12.30;99.90
28189;DHT22;15471;51.166;4.470;2023-05-29T06:25:55;12.40;99.90
28189;DHT22;15471;51.166;4.470;2023-05-29T06:28:21;12.40;99.90
28189;DHT22;15471;51.166;4.470;2023-05-29T06:30:51;12.50;99.90
28189;DHT22;15471;51.166;4.470;2023-05-29T06:33:18;12.70;99.90
28189;DHT22;15471;51.166;4.470;2023-05-29T06:35:45;12.70;99.90
28189;DHT22;15471;51.166;4.470;2023-05-29T06:38:12;12.70;99.90
28189;DHT22;15471;51.166;4.470;2023-05-29T06:40:39;12.90;99.90
28189;DHT22;15471;51.166;4.470;2023-05-29T06:43:05;13.00;99.90
28189;DHT22;15471;51.166;4.470;2023-05-29T06:45:38;13.20;99.90
28189;DHT22;15471;51.166;4.470;2023-05-29T06:48:04;13.10;99.90
28189;DHT22;15471;51.166;4.470;2023-05-29T06:50:31;13.00;99.90
28189;DHT22;15471;51.166;4.470;2023-05-29T06:53:05;13.10;99.90
28189;DHT22;15471;51.166;4.470;2023-05-29T06:55:50;13.10;99.90
28189;DHT22;15471;51.166;4.470;2023-05-29T06:58:16;13.00;99.90
28189;DHT22;15471;51.166;4.470;2023-05-29T07:00:42;13.10;99.90
28189;DHT22;15471;51.166;4.470;2023-05-29T07:03:29;13.30;99.90
28189;DHT22;15471;51.166;4.470;2023-05-29T07:05:55;13.50;99.90
28189;DHT22;15471;51.166;4.470;2023-05-29T07:08:23;13.40;99.90
28189;DHT22;15471;51.166;4.470;2023-05-29T07:10:51;13.60;99.90
28189;DHT22;15471;51.166;4.470;2023-05-29T07:13:19;13.60;99.90
28189;DHT22;15471;51.166;4.470;2023-05-29T07:15:45;13.70;99.90
28189;DHT22;15471;51.166;4.470;2023-05-29T07:18:14;13.60;99.90
28189;DHT22;15471;51.166;4.470;2023-05-29T07:20:41;13.70;99.90
28189;DHT22;15471;51.166;4.470;2023-05-29T07:23:14;13.70;99.90
28189;DHT22;15471;51.166;4.470;2023-05-29T07:25:42;13.70;99.90
28189;DHT22;15471;51.166;4.470;2023-05-29T07:28:19;13.80;99.90
28189;DHT22;15471;51.166;4.470;2023-05-29T07:30:55;13.90;99.90
28189;DHT22;15471;51.166;4.470;2023-05-29T07:33:24;14.00;99.90
28189;DHT22;15471;51.166;4.470;2023-05-29T07:35:52;14.20;99.90
28189;DHT22;15471;51.166;4.470;2023-05-29T07:38:19;14.30;99.90
28189;DHT22;15471;51.166;4.470;2023-05-29T07:40:49;14.30;99.90
28189;DHT22;15471;51.166;4.470;2023-05-29T07:43:34;14.30;99.90
28189;DHT22;15471;51.166;4.470;2023-05-29T07:46:07;14.30;99.90
28189;DHT22;15471;51.166;4.470;2023-05-29T07:48:37;14.30;99.90
28189;DHT22;15471;51.166;4.470;2023-05-29T07:51:04;14.40;99.90
28189;DHT22;15471;51.166;4.470;2023-05-29T07:53:44;14.20;99.90
28189;DHT22;15471;51.166;4.470;2023-05-29T07:56:12;14.30;99.90
28189;DHT22;15471;51.166;4.470;2023-05-29T07:58:40;14.40;99.90
28189;DHT22;15471;51.166;4.470;2023-05-29T08:01:07;14.60;99.90
28189;DHT22;15471;51.166;4.470;2023-05-29T08:03:35;14.80;99.90
28189;DHT22;15471;51.166;4.470;2023-05-29T08:06:26;15.00;99.90
28189;DHT22;15471;51.166;4.470;2023-05-29T08:08:52;15.10;99.90
28189;DHT22;15471;51.166;4.470;2023-05-29T08:11:19;15.30;99.90
28189;DHT22;15471;51.166;4.470;2023-05-29T08:13:46;15.60;99.90
28189;DHT22;15471;51.166;4.470;2023-05-29T08:16:12;15.60;99.90
28189;DHT22;15471;51.166;4.470;2023-05-29T08:18:41;15.50;99.90
28189;DHT22;15471;51.166;4.470;2023-05-29T08:21:08;15.40;99.90
28189;DHT22;15471;51.166;4.470;2023-05-29T08:23:35;15.70;99.90
28189;DHT22;15471;51.166;4.470;2023-05-29T08:26:02;15.90;99.90
28189;DHT22;15471;51.166;4.470;2023-05-29T08:28:31;15.90;99.90
28189;DHT22;15471;51.166;4.470;2023-05-29T08:31:02;16.10;99.90
28189;DHT22;15471;51.166;4.470;2023-05-29T08:33:28;16.30;99.90
28189;DHT22;15471;51.166;4.470;2023-05-29T08:36:00;16.60;99.90
28189;DHT22;15471;51.166;4.470;2023-05-29T08:38:26;16.90;99.90
28189;DHT22;15471;51.166;4.470;2023-05-29T08:40:57;18.00;99.90
28189;DHT22;15471;51.166;4.470;2023-05-29T08:43:31;19.00;99.90
28189;DHT22;15471;51.166;4.470;2023-05-29T08:46:04;19.30;99.90
28189;DHT22;15471;51.166;4.470;2023-05-29T08:48:30;19.20;99.90
28189;DHT22;15471;51.166;4.470;2023-05-29T08:50:58;19.70;99.90
28189;DHT22;15471;51.166;4.470;2023-05-29T08:53:35;20.00;99.90
28189;DHT22;15471;51.166;4.470;2023-05-29T08:56:03;19.90;99.90
28189;DHT22;15471;51.166;4.470;2023-05-29T08:58:30;20.70;99.90
28189;DHT22;15471;51.166;4.470;2023-05-29T09:00:57;21.50;99.90
28189;DHT22;15471;51.166;4.470;2023-05-29T09:03:23;21.50;99.20
28189;DHT22;15471;51.166;4.470;2023-05-29T09:05:50;21.50;99.70
28189;DHT22;15471;51.166;4.470;2023-05-29T09:08:17;22.40;96.30
28189;DHT22;15471;51.166;4.470;2023-05-29T09:10:45;20.90;97.60
28189;DHT22;15471;51.166;4.470;2023-05-29T09:13:15;20.00;99.30
28189;DHT22;15471;51.166;4.470;2023-05-29T09:15:42;19.10;99.90
28189;DHT22;15471;51.166;4.470;2023-05-29T09:18:16;19.80;99.90
28189;DHT22;15471;51.166;4.470;2023-05-29T09:20:43;19.40;99.90
28189;DHT22;15471;51.166;4.470;2023-05-29T09:23:10;18.80;99.90
28189;DHT22;15471;51.166;4.470;2023-05-29T09:25:40;19.10;99.90
28189;DHT22;15471;51.166;4.470;2023-05-29T09:28:08;19.80;99.80
28189;DHT22;15471;51.166;4.470;2023-05-29T09:30:38;20.80;99.00
28189;DHT22;15471;51.166;4.470;2023-05-29T09:33:10;21.60;97.30
28189;DHT22;15471;51.166;4.470;2023-05-29T09:35:44;22.10;94.70
28189;DHT22;15471;51.166;4.470;2023-05-29T09:38:12;21.80;94.50
28189;DHT22;15471;51.166;4.470;2023-05-29T09:40:40;21.00;94.40
28189;DHT22;15471;51.166;4.470;2023-05-29T09:43:17;21.50;94.30
28189;DHT22;15471;51.166;4.470;2023-05-29T09:45:49;21.00;95.40
28189;DHT22;15471;51.166;4.470;2023-05-29T09:48:19;21.10;94.30
28189;DHT22;15471;51.166;4.470;2023-05-29T09:50:47;20.70;94.70
28189;DHT22;15471;51.166;4.470;2023-05-29T09:53:24;20.30;95.50
28189;DHT22;15471;51.166;4.470;2023-05-29T09:55:54;19.80;97.30
28189;DHT22;15471;51.166;4.470;2023-05-29T09:58:26;19.70;96.50
28189;DHT22;15471;51.166;4.470;2023-05-29T10:00:52;19.80;96.00
28189;DHT22;15471;51.166;4.470;2023-05-29T10:03:19;19.70;96.50
28189;DHT22;15471;51.166;4.470;2023-05-29T10:05:51;19.90;95.90
28189;DHT22;15471;51.166;4.470;2023-05-29T10:08:19;19.50;96.50
28189;DHT22;15471;51.166;4.470;2023-05-29T10:10:59;19.50;97.90
28189;DHT22;15471;51.166;4.470;2023-05-29T10:13:38;19.40;98.00
28189;DHT22;15471;51.166;4.470;2023-05-29T10:16:08;19.00;99.20
28189;DHT22;15471;51.166;4.470;2023-05-29T10:18:43;19.30;98.90
28189;DHT22;15471;51.166;4.470;2023-05-29T10:21:12;19.70;97.00
28189;DHT22;15471;51.166;4.470;2023-05-29T10:23:40;19.90;97.40
28189;DHT22;15471;51.166;4.470;2023-05-29T10:26:12;19.20;98.00
28189;DHT22;15471;51.166;4.470;2023-05-29T10:28:44;19.60;97.80
28189;DHT22;15471;51.166;4.470;2023-05-29T10:31:43;19.70;97.10
28189;DHT22;15471;51.166;4.470;2023-05-29T10:37:08;19.00;99.30
28189;DHT22;15471;51.166;4.470;2023-05-29T10:39:35;18.50;99.90
28189;DHT22;15471;51.166;4.470;2023-05-29T10:42:01;18.60;99.90
28189;DHT22;15471;51.166;4.470;2023-05-29T10:49:26;19.40;98.30
28189;DHT22;15471;51.166;4.470;2023-05-29T10:51:52;19.20;98.70
28189;DHT22;15471;51.166;4.470;2023-05-29T10:54:27;19.30;98.40
28189;DHT22;15471;51.166;4.470;2023-05-29T10:56:57;19.50;99.90
28189;DHT22;15471;51.166;4.470;2023-05-29T10:59:25;19.40;99.90
28189;DHT22;15471;51.166;4.470;2023-05-29T11:01:55;19.50;97.90
28189;DHT22;15471;51.166;4.470;2023-05-29T11:06:47;19.40;97.70
28189;DHT22;15471;51.166;4.470;2023-05-29T11:09:34;19.40;97.70
28189;DHT22;15471;51.166;4.470;2023-05-29T11:17:53;18.90;99.60
28189;DHT22;15471;51.166;4.470;2023-05-29T11:20:37;18.90;99.90
28189;DHT22;15471;51.166;4.470;2023-05-29T11:23:16;18.90;99.90
28189;DHT22;15471;51.166;4.470;2023-05-29T11:25:50;18.90;99.90
28189;DHT22;15471;51.166;4.470;2023-05-29T11:28:26;19.00;99.50
28189;DHT22;15471;51.166;4.470;2023-05-29T11:31:08;19.20;99.90
28189;DHT22;15471;51.166;4.470;2023-05-29T11:33:39;19.40;99.90
28189;DHT22;15471;51.166;4.470;2023-05-29T11:36:09;19.40;99.80
28189;DHT22;15471;51.166;4.470;2023-05-29T11:38:37;19.40;99.90
28189;DHT22;15471;51.166;4.470;2023-05-29T11:41:03;19.40;99.90
28189;DHT22;15471;51.166;4.470;2023-05-29T11:43:30;19.60;98.80
28189;DHT22;15471;51.166;4.470;2023-05-29T11:45:59;19.40;99.60
28189;DHT22;15471;51.166;4.470;2023-05-29T11:48:47;19.30;98.80
28189;DHT22;15471;51.166;4.470;2023-05-29T11:51:14;19.60;98.70
28189;DHT22;15471;51.166;4.470;2023-05-29T11:53:46;19.70;98.30
28189;DHT22;15471;51.166;4.470;2023-05-29T11:56:15;19.90;99.60
28189;DHT22;15471;51.166;4.470;2023-05-29T11:58:42;20.30;99.50
28189;DHT22;15471;51.166;4.470;2023-05-29T12:01:09;20.60;98.10
28189;DHT22;15471;51.166;4.470;2023-05-29T12:03:41;20.40;98.20
28189;DHT22;15471;51.166;4.470;2023-05-29T12:06:38;20.30;97.00
28189;DHT22;15471;51.166;4.470;2023-05-29T12:09:08;20.10;97.10
28189;DHT22;15471;51.166;4.470;2023-05-29T12:11:35;20.20;97.30
28189;DHT22;15471;51.166;4.470;2023-05-29T12:14:04;20.10;98.50
28189;DHT22;15471;51.166;4.470;2023-05-29T12:16:33;20.40;96.80
28189;DHT22;15471;51.166;4.470;2023-05-29T12:19:00;20.50;96.80
28189;DHT22;15471;51.166;4.470;2023-05-29T12:21:26;20.30;97.70
28189;DHT22;15471;51.166;4.470;2023-05-29T12:23:54;20.00;97.40
28189;DHT22;15471;51.166;4.470;2023-05-29T12:26:24;20.10;98.40
28189;DHT22;15471;51.166;4.470;2023-05-29T12:28:54;20.20;97.40
28189;DHT22;15471;51.166;4.470;2023-05-29T12:31:28;19.90;98.20
28189;DHT22;15471;51.166;4.470;2023-05-29T12:34:15;19.80;97.10
28189;DHT22;15471;51.166;4.470;2023-05-29T12:36:42;19.70;97.60
28189;DHT22;15471;51.166;4.470;2023-05-29T12:39:11;19.60;98.70
28189;DHT22;15471;51.166;4.470;2023-05-29T12:41:38;19.50;99.40
28189;DHT22;15471;51.166;4.470;2023-05-29T12:44:06;19.60;99.80
28189;DHT22;15471;51.166;4.470;2023-05-29T12:46:41;19.70;99.30
28189;DHT22;15471;51.166;4.470;2023-05-29T12:49:17;19.90;99.20
28189;DHT22;15471;51.166;4.470;2023-05-29T12:51:49;20.20;97.20
28189;DHT22;15471;51.166;4.470;2023-05-29T12:54:18;20.30;98.80
28189;DHT22;15471;51.166;4.470;2023-05-29T12:56:44;20.30;98.50
28189;DHT22;15471;51.166;4.470;2023-05-29T12:59:12;20.10;98.50
28189;DHT22;15471;51.166;4.470;2023-05-29T13:01:40;20.10;98.60
28189;DHT22;15471;51.166;4.470;2023-05-29T13:04:08;20.40;98.50
28189;DHT22;15471;51.166;4.470;2023-05-29T13:06:37;20.80;96.80
28189;DHT22;15471;51.166;4.470;2023-05-29T13:09:07;21.10;95.30
28189;DHT22;15471;51.166;4.470;2023-05-29T13:11:37;21.00;95.90
28189;DHT22;15471;51.166;4.470;2023-05-29T13:14:04;21.30;96.50
28189;DHT22;15471;51.166;4.470;2023-05-29T13:16:33;21.40;94.50
28189;DHT22;15471;51.166;4.470;2023-05-29T13:19:04;21.00;97.60
28189;DHT22;15471;51.166;4.470;2023-05-29T13:21:31;21.10;95.50
28189;DHT22;15471;51.166;4.470;2023-05-29T13:24:01;20.90;96.50
28189;DHT22;15471;51.166;4.470;2023-05-29T13:26:30;20.90;96.20
28189;DHT22;15471;51.166;4.470;2023-05-29T13:28:59;21.10;94.80
28189;DHT22;15471;51.166;4.470;2023-05-29T13:31:28;21.20;96.10
28189;DHT22;15471;51.166;4.470;2023-05-29T13:33:54;20.70;95.70
28189;DHT22;15471;51.166;4.470;2023-05-29T13:36:20;20.40;96.10
28189;DHT22;15471;51.166;4.470;2023-05-29T13:38:46;20.30;96.50
28189;DHT22;15471;51.166;4.470;2023-05-29T13:41:30;20.50;97.00
28189;DHT22;15471;51.166;4.470;2023-05-29T13:43:57;20.80;94.70
28189;DHT22;15471;51.166;4.470;2023-05-29T13:46:23;20.90;95.30
28189;DHT22;15471;51.166;4.470;2023-05-29T13:48:49;21.30;93.60
28189;DHT22;15471;51.166;4.470;2023-05-29T13:51:15;21.40;92.00
28189;DHT22;15471;51.166;4.470;2023-05-29T13:53:41;21.30;93.40
28189;DHT22;15471;51.166;4.470;2023-05-29T13:56:06;21.60;91.90
28189;DHT22;15471;51.166;4.470;2023-05-29T13:58:32;21.40;92.10
28189;DHT22;15471;51.166;4.470;2023-05-29T14:00:58;21.10;92.30
28189;DHT22;15471;51.166;4.470;2023-05-29T14:03:24;21.40;91.80
28189;DHT22;15471;51.166;4.470;2023-05-29T14:05:55;21.20;92.50
28189;DHT22;15471;51.166;4.470;2023-05-29T14:08:21;21.50;90.70
28189;DHT22;15471;51.166;4.470;2023-05-29T14:10:47;21.60;92.50
28189;DHT22;15471;51.166;4.470;2023-05-29T14:13:14;21.90;89.80
28189;DHT22;15471;51.166;4.470;2023-05-29T14:15:40;22.30;87.30
28189;DHT22;15471;51.166;4.470;2023-05-29T14:18:06;22.40;83.80
28189;DHT22;15471;51.166;4.470;2023-05-29T14:20:33;22.40;81.70
28189;DHT22;15471;51.166;4.470;2023-05-29T14:23:00;22.40;78.50
28189;DHT22;15471;51.166;4.470;2023-05-29T14:25:26;22.10;78.90
28189;DHT22;15471;51.166;4.470;2023-05-29T14:27:52;21.90;81.30
28189;DHT22;15471;51.166;4.470;2023-05-29T14:30:38;22.00;78.50
28189;DHT22;15471;51.166;4.470;2023-05-29T14:33:10;21.80;78.20
28189;DHT22;15471;51.166;4.470;2023-05-29T14:35:40;21.80;79.60
28189;DHT22;15471;51.166;4.470;2023-05-29T14:38:06;21.70;79.50
28189;DHT22;15471;51.166;4.470;2023-05-29T14:40:32;21.60;81.30
28189;DHT22;15471;51.166;4.470;2023-05-29T14:46:10;21.60;81.30
28189;DHT22;15471;51.166;4.470;2023-05-29T14:48:37;21.40;83.50
28189;DHT22;15471;51.166;4.470;2023-05-29T14:51:03;21.30;81.00
28189;DHT22;15471;51.166;4.470;2023-05-29T14:53:29;21.30;83.00
28189;DHT22;15471;51.166;4.470;2023-05-29T14:56:00;21.40;81.40
28189;DHT22;15471;51.166;4.470;2023-05-29T14:58:26;21.50;80.70
28189;DHT22;15471;51.166;4.470;2023-05-29T15:00:52;21.60;81.70
28189;DHT22;15471;51.166;4.470;2023-05-29T15:03:18;21.30;83.50
28189;DHT22;15471;51.166;4.470;2023-05-29T15:05:46;21.50;81.90
28189;DHT22;15471;51.166;4.470;2023-05-29T15:08:12;21.60;82.60
28189;DHT22;15471;51.166;4.470;2023-05-29T15:10:39;21.40;83.40
28189;DHT22;15471;51.166;4.470;2023-05-29T15:13:05;22.10;82.70
28189;DHT22;15471;51.166;4.470;2023-05-29T15:15:33;23.20;77.40
28189;DHT22;15471;51.166;4.470;2023-05-29T15:17:59;24.30;74.80
28189;DHT22;15471;51.166;4.470;2023-05-29T15:20:27;24.70;68.60
28189;DHT22;15471;51.166;4.470;2023-05-29T15:22:53;24.70;68.60
28189;DHT22;15471;51.166;4.470;2023-05-29T15:25:21;24.80;68.70
28189;DHT22;15471;51.166;4.470;2023-05-29T15:27:47;24.20;70.90
28189;DHT22;15471;51.166;4.470;2023-05-29T15:30:15;23.80;72.20
28189;DHT22;15471;51.166;4.470;2023-05-29T15:32:42;23.70;70.50
28189;DHT22;15471;51.166;4.470;2023-05-29T15:35:10;23.80;68.20
28189;DHT22;15471;51.166;4.470;2023-05-29T15:37:37;23.70;70.70
28189;DHT22;15471;51.166;4.470;2023-05-29T15:40:04;23.60;71.20
28189;DHT22;15471;51.166;4.470;2023-05-29T15:42:31;23.60;70.20
28189;DHT22;15471;51.166;4.470;2023-05-29T15:44:57;23.30;70.60
28189;DHT22;15471;51.166;4.470;2023-05-29T15:47:23;23.60;70.10
28189;DHT22;15471;51.166;4.470;2023-05-29T15:49:50;23.30;70.00
28189;DHT22;15471;51.166;4.470;2023-05-29T15:52:17;23.50;71.20
28189;DHT22;15471;51.166;4.470;2023-05-29T15:54:43;24.00;69.80
28189;DHT22;15471;51.166;4.470;2023-05-29T15:57:09;24.60;68.80
28189;DHT22;15471;51.166;4.470;2023-05-29T15:59:35;24.60;66.60
28189;DHT22;15471;51.166;4.470;2023-05-29T16:02:02;24.90;64.50
28189;DHT22;15471;51.166;4.470;2023-05-29T16:04:28;26.10;62.70
28189;DHT22;15471;51.166;4.470;2023-05-29T16:06:55;27.80;59.10